sensor_id;sensor_type;location;lat;lon;timestamp;temperature;humidity
20081;DHT22;10200;49.232;9.222;2022-10-16T00:00:37;16.60;99.90
20081;DHT22;10200;49.232;9.222;2022-10-16T00:03:04;16.60;99.90
20081;DHT22;10200;49.232;9.222;2022-10-16T00:05:29;16.60;99.90
20081;DHT22;10200;49.232;9.222;2022-10-16T00:07:55;16.60;99.90
20081;DHT22;10200;49.232;9.222;2022-10-16T00:10:21;16.60;99.90
20081;DHT22;10200;49.232;9.222;2022-10-16T00:12:47;16.60;99.90
20081;DHT22;10200;49.232;9.222;2022-10-16T00:15:13;16.60;99.90
20081;DHT22;10200;49.232;9.222;2022-10-16T00:17:38;16.50;99.90
20081;DHT22;10200;49.232;9.222;2022-10-16T00:20:04;16.50;99.90
20081;DHT22;10200;49.232;9.222;2022-10-16T00:22:30;16.50;99.90
20081;DHT22;10200;49.232;9.222;2022-10-16T00:24:56;16.50;99.90
20081;DHT22;10200;49.232;9.222;2022-10-16T00:27:22;16.50;99.90
20081;DHT22;10200;49.232;9.222;2022-10-16T00:29:50;16.50;99.90
20081;DHT22;10200;49.232;9.222;2022-10-16T00:32:17;16.40;99.90
20081;DHT22;10200;49.232;9.222;2022-10-16T00:34:43;16.40;99.90
20081;DHT22;10200;49.232;9.222;2022-10-16T00:37:09;16.40;99.90
20081;DHT22;10200;49.232;9.222;2022-10-16T00:39:34;16.50;99.90
20081;DHT22;10200;49.232;9.222;2022-10-16T00:42:00;16.40;99.90
20081;DHT22;10200;49.232;9.222;2022-10-16T00:47:39;16.50;99.90
20081;DHT22;10200;49.232;9.222;2022-10-16T00:50:33;16.50;99.90
20081;DHT22;10200;49.232;9.222;2022-10-16T00:53:00;16.50;99.90
20081;DHT22;10200;49.232;9.222;2022-10-16T00:55:27;16.50;99.90
20081;DHT22;10200;49.232;9.222;2022-10-16T00:57:56;16.50;99.90
20081;DHT22;10200;49.232;9.222;2022-10-16T01:00:24;16.50;99.90
20081;DHT22;10200;49.232;9.222;2022-10-16T01:02:58;16.50;99.90
20081;DHT22;10200;49.232;9.222;2022-10-16T01:05:41;16.50;99.90
20081;DHT22;10200;49.232;9.222;2022-10-16T01:08:17;16.50;99.90
20081;DHT22;10200;49.232;9.222;2022-10-16T01:10:57;16.50;99.90
20081;DHT22;10200;49.232;9.222;2022-10-16T01:13:33;16.50;99.90
20081;DHT22;10200;49.232;9.222;2022-10-16T01:16:06;16.50;99.90
20081;DHT22;10200;49.232;9.222;2022-10-16T01:18:47;16.50;99.90
20081;DHT22;10200;49.232;9.222;2022-10-16T01:21:24;16.60;99.90
20081;DHT22;10200;49.232;9.222;2022-10-16T01:24:06;16.60;99.90
20081;DHT22;10200;49.232;9.222;2022-10-16T01:29:44;16.60;99.90
20081;DHT22;10200;49.232;9.222;2022-10-16T01:32:23;16.60;99.90
20081;DHT22;10200;49.232;9.222;2022-10-16T01:34:56;16.60;99.90
20081;DHT22;10200;49.232;9.222;2022-10-16T01:37:47;16.60;99.90
20081;DHT22;10200;49.232;9.222;2022-10-16T01:40:16;16.60;99.90
20081;DHT22;10200;49.232;9.222;2022-10-16T01:42:48;16.60;99.90
20081;DHT22;10200;49.232;9.222;2022-10-16T01:45:17;16.60;99.90
20081;DHT22;10200;49.232;9.222;2022-10-16T01:47:45;16.60;99.90
20081;DHT22;10200;49.232;9.222;2022-10-16T01:50:14;16.50;99.90
20081;DHT22;10200;49.232;9.222;2022-10-16T01:52:44;16.60;99.90
20081;DHT22;10200;49.232;9.222;2022-10-16T01:55:14;16.60;99.90
20081;DHT22;10200;49.232;9.222;2022-10-16T01:57:42;16.60;99.90
20081;DHT22;10200;49.232;9.222;2022-10-16T02:00:12;16.60;99.90
20081;DHT22;10200;49.232;9.222;2022-10-16T02:02:40;16.60;99.90
20081;DHT22;10200;49.232;9.222;2022-10-16T02:07:44;16.60;99.90
20081;DHT22;10200;49.232;9.222;2022-10-16T02:10:11;16.60;99.90
20081;DHT22;10200;49.232;9.222;2022-10-16T02:12:38;16.60;99.90
20081;DHT22;10200;49.232;9.222;2022-10-16T02:15:06;16.60;99.90
20081;DHT22;10200;49.232;9.222;2022-10-16T02:17:32;16.60;99.90
20081;DHT22;10200;49.232;9.222;2022-10-16T02:19:58;16.60;99.90
20081;DHT22;10200;49.232;9.222;2022-10-16T02:22:36;16.60;99.90
20081;DHT22;10200;49.232;9.222;2022-10-16T02:25:10;16.60;99.90
20081;DHT22;10200;49.232;9.222;2022-10-16T02:27:56;16.70;99.90
20081;DHT22;10200;49.232;9.222;2022-10-16T02:32:51;16.70;99.90
20081;DHT22;10200;49.232;9.222;2022-10-16T02:35:20;16.70;99.90
20081;DHT22;10200;49.232;9.222;2022-10-16T02:37:48;16.70;99.90
20081;DHT22;10200;49.232;9.222;2022-10-16T02:40:15;16.70;99.90
20081;DHT22;10200;49.232;9.222;2022-10-16T02:42:42;16.70;99.90
20081;DHT22;10200;49.232;9.222;2022-10-16T02:45:09;16.70;99.90
20081;DHT22;10200;49.232;9.222;2022-10-16T02:47:36;16.70;99.90
20081;DHT22;10200;49.232;9.222;2022-10-16T02:50:03;16.70;99.90
20081;DHT22;10200;49.232;9.222;2022-10-16T02:52:28;16.70;99.90
20081;DHT22;10200;49.232;9.222;2022-10-16T02:54:54;16.70;99.90
20081;DHT22;10200;49.232;9.222;2022-10-16T02:57:19;16.70;99.90
20081;DHT22;10200;49.232;9.222;2022-10-16T02:59:45;16.70;99.90
20081;DHT22;10200;49.232;9.222;2022-10-16T03:02:11;16.70;99.90
20081;DHT22;10200;49.232;9.222;2022-10-16T03:04:36;16.70;99.90
20081;DHT22;10200;49.232;9.222;2022-10-16T03:07:03;16.70;99.90
20081;DHT22;10200;49.232;9.222;2022-10-16T03:09:28;16.70;99.90
20081;DHT22;10200;49.232;9.222;2022-10-16T03:11:54;16.70;99.90
20081;DHT22;10200;49.232;9.222;2022-10-16T03:14:19;16.70;99.90
20081;DHT22;10200;49.232;9.222;2022-10-16T03:16:45;16.70;99.90
20081;DHT22;10200;49.232;9.222;2022-10-16T03:19:10;16.70;99.90
20081;DHT22;10200;49.232;9.222;2022-10-16T03:21:36;16.70;99.90
20081;DHT22;10200;49.232;9.222;2022-10-16T03:24:02;16.70;99.90
20081;DHT22;10200;49.232;9.222;2022-10-16T03:26:27;16.70;99.90
20081;DHT22;10200;49.232;9.222;2022-10-16T03:28:53;16.70;99.90
20081;DHT22;10200;49.232;9.222;2022-10-16T03:31:18;16.70;99.90
20081;DHT22;10200;49.232;9.222;2022-10-16T03:33:44;16.70;99.90
20081;DHT22;10200;49.232;9.222;2022-10-16T03:36:09;16.70;99.90
20081;DHT22;10200;49.232;9.222;2022-10-16T03:38:35;16.70;99.90
20081;DHT22;10200;49.232;9.222;2022-10-16T03:41:00;16.70;99.90
20081;DHT22;10200;49.232;9.222;2022-10-16T03:43:26;16.70;99.90
20081;DHT22;10200;49.232;9.222;2022-10-16T03:45:51;16.70;99.90
20081;DHT22;10200;49.232;9.222;2022-10-16T03:48:18;16.70;99.90
20081;DHT22;10200;49.232;9.222;2022-10-16T03:50:44;16.70;99.90
20081;DHT22;10200;49.232;9.222;2022-10-16T03:53:09;16.70;99.90
20081;DHT22;10200;49.232;9.222;2022-10-16T03:55:35;16.60;99.90
20081;DHT22;10200;49.232;9.222;2022-10-16T03:58:01;16.70;99.90
20081;DHT22;10200;49.232;9.222;2022-10-16T04:00:26;16.60;99.90
20081;DHT22;10200;49.232;9.222;2022-10-16T04:02:52;16.60;99.90
20081;DHT22;10200;49.232;9.222;2022-10-16T04:05:18;16.60;99.90
20081;DHT22;10200;49.232;9.222;2022-10-16T04:07:43;16.70;99.90
20081;DHT22;10200;49.232;9.222;2022-10-16T04:10:09;16.60;99.90
20081;DHT22;10200;49.232;9.222;2022-10-16T04:12:34;16.60;99.90
20081;DHT22;10200;49.232;9.222;2022-10-16T04:15:00;16.70;99.90
20081;DHT22;10200;49.232;9.222;2022-10-16T04:17:25;16.60;99.90
20081;DHT22;10200;49.232;9.222;2022-10-16T04:19:51;16.60;99.90
20081;DHT22;10200;49.232;9.222;2022-10-16T04:22:17;16.60;99.90
20081;DHT22;10200;49.232;9.222;2022-10-16T04:24:42;16.60;99.90
20081;DHT22;10200;49.232;9.222;2022-10-16T04:27:08;16.60;99.90
20081;DHT22;10200;49.232;9.222;2022-10-16T04:29:33;16.60;99.90
20081;DHT22;10200;49.232;9.222;2022-10-16T04:31:59;16.60;99.90
20081;DHT22;10200;49.232;9.222;2022-10-16T04:34:24;16.60;99.90
20081;DHT22;10200;49.232;9.222;2022-10-16T04:36:50;16.60;99.90
20081;DHT22;10200;49.232;9.222;2022-10-16T04:39:16;16.60;99.90
20081;DHT22;10200;49.232;9.222;2022-10-16T04:41:42;16.60;99.90
20081;DHT22;10200;49.232;9.222;2022-10-16T04:44:08;16.50;99.90
20081;DHT22;10200;49.232;9.222;2022-10-16T04:46:34;16.50;99.90
20081;DHT22;10200;49.232;9.222;2022-10-16T04:48:59;16.50;99.90
20081;DHT22;10200;49.232;9.222;2022-10-16T04:51:25;16.50;99.90
20081;DHT22;10200;49.232;9.222;2022-10-16T04:53:51;16.50;99.90
20081;DHT22;10200;49.232;9.222;2022-10-16T04:56:17;16.40;99.90
20081;DHT22;10200;49.232;9.222;2022-10-16T04:58:42;16.50;99.90
20081;DHT22;10200;49.232;9.222;2022-10-16T05:01:08;16.50;99.90
20081;DHT22;10200;49.232;9.222;2022-10-16T05:03:34;16.50;99.90
20081;DHT22;10200;49.232;9.222;2022-10-16T05:05:59;16.50;99.90
20081;DHT22;10200;49.232;9.222;2022-10-16T05:08:25;16.50;99.90
20081;DHT22;10200;49.232;9.222;2022-10-16T05:10:50;16.50;99.90
20081;DHT22;10200;49.232;9.222;2022-10-16T05:13:16;16.50;99.90
20081;DHT22;10200;49.232;9.222;2022-10-16T05:15:42;16.50;99.90
20081;DHT22;10200;49.232;9.222;2022-10-16T05:18:08;16.50;99.90
20081;DHT22;10200;49.232;9.222;2022-10-16T05:20:34;16.50;99.90
20081;DHT22;10200;49.232;9.222;2022-10-16T05:22:59;16.50;99.90
20081;DHT22;10200;49.232;9.222;2022-10-16T05:25:25;16.50;99.90
20081;DHT22;10200;49.232;9.222;2022-10-16T05:27:51;16.50;99.90
20081;DHT22;10200;49.232;9.222;2022-10-16T05:30:17;16.50;99.90
20081;DHT22;10200;49.232;9.222;2022-10-16T05:32:50;16.50;99.90
20081;DHT22;10200;49.232;9.222;2022-10-16T05:35:17;16.50;99.90
20081;DHT22;10200;49.232;9.222;2022-10-16T05:37:43;16.50;99.90
20081;DHT22;10200;49.232;9.222;2022-10-16T05:40:10;16.50;99.90
20081;DHT22;10200;49.232;9.222;2022-10-16T05:42:35;16.50;99.90
20081;DHT22;10200;49.232;9.222;2022-10-16T05:45:01;16.50;99.90
20081;DHT22;10200;49.232;9.222;2022-10-16T05:47:27;16.40;99.90
20081;DHT22;10200;49.232;9.222;2022-10-16T05:49:52;16.40;99.90
20081;DHT22;10200;49.232;9.222;2022-10-16T05:52:18;16.50;99.90
20081;DHT22;10200;49.232;9.222;2022-10-16T05:54:44;16.40;99.90
20081;DHT22;10200;49.232;9.222;2022-10-16T05:57:09;16.50;99.90
20081;DHT22;10200;49.232;9.222;2022-10-16T05:59:35;16.50;99.90
20081;DHT22;10200;49.232;9.222;2022-10-16T06:02:01;16.40;99.90
20081;DHT22;10200;49.232;9.222;2022-10-16T06:04:26;16.40;99.90
20081;DHT22;10200;49.232;9.222;2022-10-16T06:06:52;16.40;99.90
20081;DHT22;10200;49.232;9.222;2022-10-16T06:09:17;16.40;99.90
20081;DHT22;10200;49.232;9.222;2022-10-16T06:11:43;16.40;99.90
20081;DHT22;10200;49.232;9.222;2022-10-16T06:14:08;16.40;99.90
20081;DHT22;10200;49.232;9.222;2022-10-16T06:16:36;16.40;99.90
20081;DHT22;10200;49.232;9.222;2022-10-16T06:19:02;16.40;99.90
20081;DHT22;10200;49.232;9.222;2022-10-16T06:21:29;16.40;99.90
20081;DHT22;10200;49.232;9.222;2022-10-16T06:23:56;16.30;99.90
20081;DHT22;10200;49.232;9.222;2022-10-16T06:26:24;16.40;99.90
20081;DHT22;10200;49.232;9.222;2022-10-16T06:28:50;16.40;99.90
20081;DHT22;10200;49.232;9.222;2022-10-16T06:31:17;16.40;99.90
20081;DHT22;10200;49.232;9.222;2022-10-16T06:33:43;16.40;99.90
20081;DHT22;10200;49.232;9.222;2022-10-16T06:36:11;16.40;99.90
20081;DHT22;10200;49.232;9.222;2022-10-16T06:38:38;16.50;99.90
20081;DHT22;10200;49.232;9.222;2022-10-16T06:41:05;16.50;99.90
20081;DHT22;10200;49.232;9.222;2022-10-16T06:43:32;16.50;99.90
20081;DHT22;10200;49.232;9.222;2022-10-16T06:45:59;16.50;99.90
20081;DHT22;10200;49.232;9.222;2022-10-16T06:48:25;16.60;99.90
20081;DHT22;10200;49.232;9.222;2022-10-16T06:53:29;16.70;99.90
20081;DHT22;10200;49.232;9.222;2022-10-16T06:55:55;16.70;99.90
20081;DHT22;10200;49.232;9.222;2022-10-16T06:58:21;16.80;99.90
20081;DHT22;10200;49.232;9.222;2022-10-16T07:00:47;16.80;99.90
20081;DHT22;10200;49.232;9.222;2022-10-16T07:03:13;16.80;99.90
20081;DHT22;10200;49.232;9.222;2022-10-16T07:05:39;16.80;99.90
20081;DHT22;10200;49.232;9.222;2022-10-16T07:08:05;16.80;99.90
20081;DHT22;10200;49.232;9.222;2022-10-16T07:10:31;16.90;99.90
20081;DHT22;10200;49.232;9.222;2022-10-16T07:12:57;16.90;99.90
20081;DHT22;10200;49.232;9.222;2022-10-16T07:15:23;16.90;99.90
20081;DHT22;10200;49.232;9.222;2022-10-16T07:17:49;16.90;99.90
20081;DHT22;10200;49.232;9.222;2022-10-16T07:20:15;16.90;99.90
20081;DHT22;10200;49.232;9.222;2022-10-16T07:22:40;16.80;99.90
20081;DHT22;10200;49.232;9.222;2022-10-16T07:25:06;16.90;99.90
20081;DHT22;10200;49.232;9.222;2022-10-16T07:27:32;16.90;99.90
20081;DHT22;10200;49.232;9.222;2022-10-16T07:29:57;16.90;99.90
20081;DHT22;10200;49.232;9.222;2022-10-16T07:32:23;16.80;99.90
20081;DHT22;10200;49.232;9.222;2022-10-16T07:34:51;16.90;99.90
20081;DHT22;10200;49.232;9.222;2022-10-16T07:37:17;16.90;99.90
20081;DHT22;10200;49.232;9.222;2022-10-16T07:39:42;16.90;99.90
20081;DHT22;10200;49.232;9.222;2022-10-16T07:42:08;17.00;99.90
20081;DHT22;10200;49.232;9.222;2022-10-16T07:44:33;17.10;99.90
20081;DHT22;10200;49.232;9.222;2022-10-16T07:46:59;17.10;99.90
20081;DHT22;10200;49.232;9.222;2022-10-16T07:49:24;17.10;99.90
20081;DHT22;10200;49.232;9.222;2022-10-16T07:51:50;17.10;99.90
20081;DHT22;10200;49.232;9.222;2022-10-16T07:54:16;17.20;99.90
20081;DHT22;10200;49.232;9.222;2022-10-16T07:56:42;17.30;99.90
20081;DHT22;10200;49.232;9.222;2022-10-16T07:59:07;17.30;99.90
20081;DHT22;10200;49.232;9.222;2022-10-16T08:01:33;17.50;99.90
20081;DHT22;10200;49.232;9.222;2022-10-16T08:03:58;17.50;99.90
20081;DHT22;10200;49.232;9.222;2022-10-16T08:06:24;17.50;99.90
20081;DHT22;10200;49.232;9.222;2022-10-16T08:08:49;17.60;99.90
20081;DHT22;10200;49.232;9.222;2022-10-16T08:11:15;17.70;99.90
20081;DHT22;10200;49.232;9.222;2022-10-16T08:13:41;17.80;99.90
20081;DHT22;10200;49.232;9.222;2022-10-16T08:16:08;18.00;99.90
20081;DHT22;10200;49.232;9.222;2022-10-16T08:18:36;18.00;99.90
20081;DHT22;10200;49.232;9.222;2022-10-16T08:21:02;18.00;99.90
20081;DHT22;10200;49.232;9.222;2022-10-16T08:23:29;18.10;99.90
20081;DHT22;10200;49.232;9.222;2022-10-16T08:25:56;18.30;99.90
20081;DHT22;10200;49.232;9.222;2022-10-16T08:28:27;18.50;99.90
20081;DHT22;10200;49.232;9.222;2022-10-16T08:30:52;18.60;99.90
20081;DHT22;10200;49.232;9.222;2022-10-16T08:33:18;18.70;99.90
20081;DHT22;10200;49.232;9.222;2022-10-16T08:35:51;18.70;99.90
20081;DHT22;10200;49.232;9.222;2022-10-16T08:38:16;18.80;99.90
20081;DHT22;10200;49.232;9.222;2022-10-16T08:40:42;18.90;99.90
20081;DHT22;10200;49.232;9.222;2022-10-16T08:48:45;19.10;99.90
20081;DHT22;10200;49.232;9.222;2022-10-16T08:51:18;19.20;99.90
20081;DHT22;10200;49.232;9.222;2022-10-16T08:53:49;19.60;99.90
20081;DHT22;10200;49.232;9.222;2022-10-16T08:56:17;19.80;99.90
20081;DHT22;10200;49.232;9.222;2022-10-16T08:58:44;19.90;99.90
20081;DHT22;10200;49.232;9.222;2022-10-16T09:01:12;20.00;99.90
20081;DHT22;10200;49.232;9.222;2022-10-16T09:12:37;20.50;99.90
20081;DHT22;10200;49.232;9.222;2022-10-16T09:23:18;20.50;99.90
20081;DHT22;10200;49.232;9.222;2022-10-16T09:25:47;20.60;99.90
20081;DHT22;10200;49.232;9.222;2022-10-16T09:28:14;20.70;99.90
20081;DHT22;10200;49.232;9.222;2022-10-16T09:30:40;20.80;99.90
20081;DHT22;10200;49.232;9.222;2022-10-16T09:33:06;20.90;99.90
20081;DHT22;10200;49.232;9.222;2022-10-16T09:35:42;20.90;99.90
20081;DHT22;10200;49.232;9.222;2022-10-16T09:38:09;20.90;99.90
20081;DHT22;10200;49.232;9.222;2022-10-16T09:40:46;21.00;99.90
20081;DHT22;10200;49.232;9.222;2022-10-16T09:43:32;21.10;99.90
20081;DHT22;10200;49.232;9.222;2022-10-16T09:48:38;21.10;99.90
20081;DHT22;10200;49.232;9.222;2022-10-16T09:51:06;21.10;99.90
20081;DHT22;10200;49.232;9.222;2022-10-16T09:53:44;21.10;99.90
20081;DHT22;10200;49.232;9.222;2022-10-16T09:56:11;21.10;99.90
20081;DHT22;10200;49.232;9.222;2022-10-16T09:58:42;21.10;99.90
20081;DHT22;10200;49.232;9.222;2022-10-16T10:01:14;21.20;99.90
20081;DHT22;10200;49.232;9.222;2022-10-16T10:03:42;21.20;99.90
20081;DHT22;10200;49.232;9.222;2022-10-16T10:06:29;21.30;99.90
20081;DHT22;10200;49.232;9.222;2022-10-16T10:09:20;21.30;99.90
20081;DHT22;10200;49.232;9.222;2022-10-16T10:11:59;21.40;99.90
20081;DHT22;10200;49.232;9.222;2022-10-16T10:19:59;21.30;99.90
20081;DHT22;10200;49.232;9.222;2022-10-16T10:22:44;21.20;99.90
20081;DHT22;10200;49.232;9.222;2022-10-16T10:40:56;21.20;99.90
20081;DHT22;10200;49.232;9.222;2022-10-16T10:51:37;21.30;99.90
20081;DHT22;10200;49.232;9.222;2022-10-16T10:54:13;21.30;99.90
20081;DHT22;10200;49.232;9.222;2022-10-16T10:57:02;21.30;99.90
20081;DHT22;10200;49.232;9.222;2022-10-16T10:59:32;21.40;99.90
20081;DHT22;10200;49.232;9.222;2022-10-16T11:07:52;21.60;99.90
20081;DHT22;10200;49.232;9.222;2022-10-16T11:10:22;21.80;99.90
20081;DHT22;10200;49.232;9.222;2022-10-16T11:12:52;21.80;99.90
20081;DHT22;10200;49.232;9.222;2022-10-16T11:15:27;21.80;99.90
20081;DHT22;10200;49.232;9.222;2022-10-16T11:18:16;21.80;99.90
20081;DHT22;10200;49.232;9.222;2022-10-16T11:20:54;21.80;99.90
20081;DHT22;10200;49.232;9.222;2022-10-16T11:23:26;21.70;99.50
20081;DHT22;10200;49.232;9.222;2022-10-16T11:25:57;21.70;99.90
20081;DHT22;10200;49.232;9.222;2022-10-16T11:28:37;21.70;99.90
20081;DHT22;10200;49.232;9.222;2022-10-16T11:31:08;21.80;99.90
20081;DHT22;10200;49.232;9.222;2022-10-16T11:34:01;21.90;99.90
20081;DHT22;10200;49.232;9.222;2022-10-16T11:39:28;21.90;99.80
20081;DHT22;10200;49.232;9.222;2022-10-16T11:42:04;21.90;99.30
20081;DHT22;10200;49.232;9.222;2022-10-16T11:47:37;21.90;98.90
20081;DHT22;10200;49.232;9.222;2022-10-16T12:00:45;21.90;96.60
20081;DHT22;10200;49.232;9.222;2022-10-16T12:05:58;21.90;97.50
20081;DHT22;10200;49.232;9.222;2022-10-16T12:08:25;21.90;97.10
20081;DHT22;10200;49.232;9.222;2022-10-16T12:10:51;21.90;96.60
20081;DHT22;10200;49.232;9.222;2022-10-16T12:13:36;21.80;96.80
20081;DHT22;10200;49.232;9.222;2022-10-16T12:18:37;21.80;97.80
20081;DHT22;10200;49.232;9.222;2022-10-16T12:21:03;21.80;98.30
20081;DHT22;10200;49.232;9.222;2022-10-16T12:23:37;21.80;98.70
20081;DHT22;10200;49.232;9.222;2022-10-16T12:26:03;21.80;98.90
20081;DHT22;10200;49.232;9.222;2022-10-16T12:28:31;21.90;98.90
20081;DHT22;10200;49.232;9.222;2022-10-16T12:31:08;21.90;99.00
20081;DHT22;10200;49.232;9.222;2022-10-16T12:33:41;21.90;99.40
20081;DHT22;10200;49.232;9.222;2022-10-16T12:36:28;22.00;99.50
20081;DHT22;10200;49.232;9.222;2022-10-16T12:38:55;22.00;98.60
20081;DHT22;10200;49.232;9.222;2022-10-16T12:41:32;22.00;97.80
20081;DHT22;10200;49.232;9.222;2022-10-16T12:43:59;22.10;97.40
20081;DHT22;10200;49.232;9.222;2022-10-16T12:51:39;22.30;96.60
20081;DHT22;10200;49.232;9.222;2022-10-16T13:05:25;22.50;94.90
20081;DHT22;10200;49.232;9.222;2022-10-16T13:16:21;22.40;94.00
20081;DHT22;10200;49.232;9.222;2022-10-16T13:21:42;22.40;93.60
20081;DHT22;10200;49.232;9.222;2022-10-16T13:29:14;22.30;93.50
20081;DHT22;10200;49.232;9.222;2022-10-16T13:31:40;22.20;93.30
20081;DHT22;10200;49.232;9.222;2022-10-16T13:34:15;22.20;93.70
20081;DHT22;10200;49.232;9.222;2022-10-16T13:36:48;22.20;93.90
20081;DHT22;10200;49.232;9.222;2022-10-16T13:39:25;22.20;94.30
20081;DHT22;10200;49.232;9.222;2022-10-16T13:42:27;22.10;94.50
20081;DHT22;10200;49.232;9.222;2022-10-16T13:44:55;22.10;94.80
20081;DHT22;10200;49.232;9.222;2022-10-16T13:47:25;22.10;95.10
20081;DHT22;10200;49.232;9.222;2022-10-16T13:50:06;22.00;94.60
20081;DHT22;10200;49.232;9.222;2022-10-16T13:52:34;22.00;94.40
20081;DHT22;10200;49.232;9.222;2022-10-16T13:55:00;21.90;94.60
20081;DHT22;10200;49.232;9.222;2022-10-16T13:57:25;21.80;94.00
20081;DHT22;10200;49.232;9.222;2022-10-16T13:59:51;21.90;94.50
20081;DHT22;10200;49.232;9.222;2022-10-16T14:02:34;21.80;94.80
20081;DHT22;10200;49.232;9.222;2022-10-16T14:05:02;21.80;95.90
20081;DHT22;10200;49.232;9.222;2022-10-16T14:07:33;21.80;96.30
20081;DHT22;10200;49.232;9.222;2022-10-16T14:10:18;21.80;96.80
20081;DHT22;10200;49.232;9.222;2022-10-16T14:12:45;21.80;97.00
20081;DHT22;10200;49.232;9.222;2022-10-16T14:15:18;21.70;97.20
20081;DHT22;10200;49.232;9.222;2022-10-16T14:17:47;21.70;96.80
20081;DHT22;10200;49.232;9.222;2022-10-16T14:20:14;21.60;96.80
20081;DHT22;10200;49.232;9.222;2022-10-16T14:22:44;21.60;96.40
20081;DHT22;10200;49.232;9.222;2022-10-16T14:27:59;21.70;97.90
20081;DHT22;10200;49.232;9.222;2022-10-16T14:30:26;21.70;99.00
20081;DHT22;10200;49.232;9.222;2022-10-16T14:33:03;21.80;99.90
20081;DHT22;10200;49.232;9.222;2022-10-16T14:35:36;21.80;99.90
20081;DHT22;10200;49.232;9.222;2022-10-16T14:38:03;21.70;99.90
20081;DHT22;10200;49.232;9.222;2022-10-16T14:40:35;21.70;99.90
20081;DHT22;10200;49.232;9.222;2022-10-16T14:43:02;21.70;99.90
20081;DHT22;10200;49.232;9.222;2022-10-16T14:45:30;21.70;99.90
20081;DHT22;10200;49.232;9.222;2022-10-16T14:48:14;21.70;99.90
20081;DHT22;10200;49.232;9.222;2022-10-16T14:50:42;21.60;99.90
20081;DHT22;10200;49.232;9.222;2022-10-16T14:53:14;21.50;99.90
20081;DHT22;10200;49.232;9.222;2022-10-16T14:55:40;21.50;99.90
20081;DHT22;10200;49.232;9.222;2022-10-16T14:58:16;21.40;99.90
20081;DHT22;10200;49.232;9.222;2022-10-16T15:00:43;21.30;99.90
20081;DHT22;10200;49.232;9.222;2022-10-16T15:03:08;21.30;99.90
20081;DHT22;10200;49.232;9.222;2022-10-16T15:05:34;21.20;99.90
20081;DHT22;10200;49.232;9.222;2022-10-16T15:08:00;21.20;99.90
20081;DHT22;10200;49.232;9.222;2022-10-16T15:10:27;21.10;99.90
20081;DHT22;10200;49.232;9.222;2022-10-16T15:12:54;21.10;99.90
20081;DHT22;10200;49.232;9.222;2022-10-16T15:17:49;21.00;99.90
20081;DHT22;10200;49.232;9.222;2022-10-16T15:20:17;21.00;99.90
20081;DHT22;10200;49.232;9.222;2022-10-16T15:22:43;20.90;99.90
20081;DHT22;10200;49.232;9.222;2022-10-16T15:25:33;20.90;99.90
20081;DHT22;10200;49.232;9.222;2022-10-16T15:28:00;20.90;99.90
20081;DHT22;10200;49.232;9.222;2022-10-16T15:30:27;20.80;99.90
20081;DHT22;10200;49.232;9.222;2022-10-16T15:32:53;20.90;99.90
20081;DHT22;10200;49.232;9.222;2022-10-16T15:35:19;20.90;99.90
20081;DHT22;10200;49.232;9.222;2022-10-16T15:37:45;20.90;99.90
20081;DHT22;10200;49.232;9.222;2022-10-16T15:40:11;20.90;99.90
20081;DHT22;10200;49.232;9.222;2022-10-16T15:42:36;20.90;99.90
20081;DHT22;10200;49.232;9.222;2022-10-16T15:45:03;21.00;99.90
20081;DHT22;10200;49.232;9.222;2022-10-16T15:47:29;21.00;99.90
20081;DHT22;10200;49.232;9.222;2022-10-16T15:49:55;20.90;99.90
20081;DHT22;10200;49.232;9.222;2022-10-16T15:52:20;20.90;99.90
20081;DHT22;10200;49.232;9.222;2022-10-16T15:54:46;20.90;99.90
20081;DHT22;10200;49.232;9.222;2022-10-16T15:57:11;20.90;99.90
20081;DHT22;10200;49.232;9.222;2022-10-16T15:59:37;20.80;99.90
20081;DHT22;10200;49.232;9.222;2022-10-16T16:02:02;20.80;99.90
20081;DHT22;10200;49.232;9.222;2022-10-16T16:04:31;20.70;99.90
20081;DHT22;10200;49.232;9.222;2022-10-16T16:06:57;20.60;99.90
20081;DHT22;10200;49.232;9.222;2022-10-16T16:09:22;20.60;99.90
20081;DHT22;10200;49.232;9.222;2022-10-16T16:11:49;20.50;99.90
20081;DHT22;10200;49.232;9.222;2022-10-16T16:14:16;20.50;99.90
20081;DHT22;10200;49.232;9.222;2022-10-16T16:16:42;20.40;99.90
20081;DHT22;10200;49.232;9.222;2022-10-16T16:19:08;20.40;99.90
20081;DHT22;10200;49.232;9.222;2022-10-16T16:21:34;20.30;99.90
20081;DHT22;10200;49.232;9.222;2022-10-16T16:24:00;20.20;99.90
20081;DHT22;10200;49.232;9.222;2022-10-16T16:26:29;20.10;99.90
20081;DHT22;10200;49.232;9.222;2022-10-16T16:29:00;20.00;99.90
20081;DHT22;10200;49.232;9.222;2022-10-16T16:31:27;19.90;99.90
20081;DHT22;10200;49.232;9.222;2022-10-16T16:33:54;19.90;99.90
20081;DHT22;10200;49.232;9.222;2022-10-16T16:36:20;19.80;99.90
20081;DHT22;10200;49.232;9.222;2022-10-16T16:38:46;19.80;99.90
20081;DHT22;10200;49.232;9.222;2022-10-16T16:41:16;19.70;99.90
20081;DHT22;10200;49.232;9.222;2022-10-16T16:43:42;19.70;99.90
20081;DHT22;10200;49.232;9.222;2022-10-16T16:46:08;19.60;99.90
20081;DHT22;10200;49.232;9.222;2022-10-16T16:48:34;19.50;99.90
20081;DHT22;10200;49.232;9.222;2022-10-16T16:51:11;19.40;99.90
20081;DHT22;10200;49.232;9.222;2022-10-16T16:53:41;19.40;99.90
20081;DHT22;10200;49.232;9.222;2022-10-16T16:56:07;19.30;99.90
20081;DHT22;10200;49.232;9.222;2022-10-16T16:58:33;19.20;99.90
20081;DHT22;10200;49.232;9.222;2022-10-16T17:00:59;19.10;99.90
20081;DHT22;10200;49.232;9.222;2022-10-16T17:03:28;19.00;99.90
20081;DHT22;10200;49.232;9.222;2022-10-16T17:06:04;19.00;99.90
20081;DHT22;10200;49.232;9.222;2022-10-16T17:08:31;18.80;99.90
20081;DHT22;10200;49.232;9.222;2022-10-16T17:10:57;18.80;99.90
20081;DHT22;10200;49.232;9.222;2022-10-16T17:13:27;18.70;99.90
20081;DHT22;10200;49.232;9.222;2022-10-16T17:15:53;18.70;99.90
20081;DHT22;10200;49.232;9.222;2022-10-16T17:18:21;18.70;99.90
20081;DHT22;10200;49.232;9.222;2022-10-16T17:20:47;18.70;99.90
20081;DHT22;10200;49.232;9.222;2022-10-16T17:23:14;18.60;99.90
20081;DHT22;10200;49.232;9.222;2022-10-16T17:25:41;18.50;99.90
20081;DHT22;10200;49.232;9.222;2022-10-16T17:28:08;18.50;99.90
20081;DHT22;10200;49.232;9.222;2022-10-16T17:30:37;18.40;99.90
20081;DHT22;10200;49.232;9.222;2022-10-16T17:33:04;18.40;99.90
20081;DHT22;10200;49.232;9.222;2022-10-16T17:35:35;18.40;99.90
20081;DHT22;10200;49.232;9.222;2022-10-16T17:38:00;18.30;99.90
20081;DHT22;10200;49.232;9.222;2022-10-16T17:40:26;18.30;99.90
20081;DHT22;10200;49.232;9.222;2022-10-16T17:42:52;18.20;99.90
20081;DHT22;10200;49.232;9.222;2022-10-16T17:45:17;18.20;99.90
20081;DHT22;10200;49.232;9.222;2022-10-16T17:47:43;18.20;99.90
20081;DHT22;10200;49.232;9.222;2022-10-16T17:50:08;18.10;99.90
20081;DHT22;10200;49.232;9.222;2022-10-16T17:52:34;18.10;99.90